sensor_id;sensor_type;location;lat;lon;timestamp;P1;durP1;ratioP1;P2;durP2;ratioP2
1140;SDS011;559;48.628;8.924;2022-12-07T00:01:27;53.28;;;49.67;;
1140;SDS011;559;48.628;8.924;2022-12-07T00:03:54;51.53;;;47.55;;
1140;SDS011;559;48.628;8.924;2022-12-07T00:06:27;54.28;;;50.67;;
1140;SDS011;559;48.628;8.924;2022-12-07T00:08:53;52.25;;;48.83;;
1140;SDS011;559;48.628;8.924;2022-12-07T00:11:20;53.25;;;49.70;;
1140;SDS011;559;48.628;8.924;2022-12-07T00:13:50;50.58;;;47.03;;
1140;SDS011;559;48.628;8.924;2022-12-07T00:16:18;53.78;;;50.08;;
1140;SDS011;559;48.628;8.924;2022-12-07T00:18:46;51.25;;;47.92;;
1140;SDS011;559;48.628;8.924;2022-12-07T00:21:14;50.40;;;47.10;;
1140;SDS011;559;48.628;8.924;2022-12-07T00:23:43;51.58;;;47.97;;
1140;SDS011;559;48.628;8.924;2022-12-07T00:26:12;49.85;;;46.65;;
1140;SDS011;559;48.628;8.924;2022-12-07T00:28:40;51.35;;;48.00;;
1140;SDS011;559;48.628;8.924;2022-12-07T00:31:07;49.25;;;46.05;;
1140;SDS011;559;48.628;8.924;2022-12-07T00:33:35;49.13;;;45.90;;
1140;SDS011;559;48.628;8.924;2022-12-07T00:36:03;49.40;;;45.95;;
1140;SDS011;559;48.628;8.924;2022-12-07T00:38:32;54.80;;;50.83;;
1140;SDS011;559;48.628;8.924;2022-12-07T00:41:02;50.58;;;46.97;;
1140;SDS011;559;48.628;8.924;2022-12-07T00:43:30;49.70;;;45.85;;
1140;SDS011;559;48.628;8.924;2022-12-07T00:45:57;48.85;;;45.55;;
1140;SDS011;559;48.628;8.924;2022-12-07T00:48:24;49.05;;;45.85;;
1140;SDS011;559;48.628;8.924;2022-12-07T00:50:51;47.28;;;44.10;;
1140;SDS011;559;48.628;8.924;2022-12-07T00:53:17;50.00;;;46.70;;
1140;SDS011;559;48.628;8.924;2022-12-07T00:55:44;48.10;;;45.00;;
1140;SDS011;559;48.628;8.924;2022-12-07T00:58:12;52.35;;;48.75;;
1140;SDS011;559;48.628;8.924;2022-12-07T01:00:39;47.72;;;44.55;;
1140;SDS011;559;48.628;8.924;2022-12-07T01:03:08;49.30;;;46.00;;
1140;SDS011;559;48.628;8.924;2022-12-07T01:05:36;48.55;;;45.15;;
1140;SDS011;559;48.628;8.924;2022-12-07T01:08:02;47.63;;;44.25;;
1140;SDS011;559;48.628;8.924;2022-12-07T01:10:29;50.50;;;47.05;;
1140;SDS011;559;48.628;8.924;2022-12-07T01:12:56;48.85;;;45.53;;
1140;SDS011;559;48.628;8.924;2022-12-07T01:15:24;51.13;;;47.80;;
1140;SDS011;559;48.628;8.924;2022-12-07T01:17:51;50.53;;;47.20;;
1140;SDS011;559;48.628;8.924;2022-12-07T01:20:17;48.90;;;45.90;;
1140;SDS011;559;48.628;8.924;2022-12-07T01:22:44;50.33;;;47.00;;
1140;SDS011;559;48.628;8.924;2022-12-07T01:25:11;51.40;;;48.20;;
1140;SDS011;559;48.628;8.924;2022-12-07T01:27:37;53.03;;;49.72;;
1140;SDS011;559;48.628;8.924;2022-12-07T01:30:05;51.65;;;48.35;;
1140;SDS011;559;48.628;8.924;2022-12-07T01:32:34;52.45;;;49.10;;
1140;SDS011;559;48.628;8.924;2022-12-07T01:35:01;50.88;;;47.60;;
1140;SDS011;559;48.628;8.924;2022-12-07T01:37:27;51.72;;;48.40;;
1140;SDS011;559;48.628;8.924;2022-12-07T01:39:54;52.22;;;48.63;;
1140;SDS011;559;48.628;8.924;2022-12-07T01:42:20;53.67;;;50.08;;
1140;SDS011;559;48.628;8.924;2022-12-07T01:47:57;52.75;;;49.25;;
1140;SDS011;559;48.628;8.924;2022-12-07T01:50:24;53.45;;;49.65;;
1140;SDS011;559;48.628;8.924;2022-12-07T01:52:52;55.53;;;51.72;;
1140;SDS011;559;48.628;8.924;2022-12-07T01:55:20;52.25;;;48.53;;
1140;SDS011;559;48.628;8.924;2022-12-07T01:57:48;53.45;;;49.92;;
1140;SDS011;559;48.628;8.924;2022-12-07T02:00:16;57.08;;;53.28;;
1140;SDS011;559;48.628;8.924;2022-12-07T02:02:44;59.58;;;55.78;;
1140;SDS011;559;48.628;8.924;2022-12-07T02:05:15;55.63;;;51.92;;
1140;SDS011;559;48.628;8.924;2022-12-07T02:07:43;57.08;;;53.42;;
1140;SDS011;559;48.628;8.924;2022-12-07T02:10:15;55.28;;;51.70;;
1140;SDS011;559;48.628;8.924;2022-12-07T02:12:42;53.17;;;49.80;;
1140;SDS011;559;48.628;8.924;2022-12-07T02:15:10;52.85;;;49.35;;
1140;SDS011;559;48.628;8.924;2022-12-07T02:17:38;53.75;;;50.20;;
1140;SDS011;559;48.628;8.924;2022-12-07T02:20:19;53.33;;;49.92;;
1140;SDS011;559;48.628;8.924;2022-12-07T02:22:59;54.53;;;50.92;;
1140;SDS011;559;48.628;8.924;2022-12-07T02:25:33;54.00;;;50.30;;
1140;SDS011;559;48.628;8.924;2022-12-07T02:28:09;50.13;;;46.92;;
1140;SDS011;559;48.628;8.924;2022-12-07T02:30:40;48.28;;;45.10;;
1140;SDS011;559;48.628;8.924;2022-12-07T02:33:11;48.42;;;45.25;;
1140;SDS011;559;48.628;8.924;2022-12-07T02:35:40;48.15;;;44.97;;
1140;SDS011;559;48.628;8.924;2022-12-07T02:38:08;46.67;;;43.72;;
1140;SDS011;559;48.628;8.924;2022-12-07T02:40:39;46.53;;;43.63;;
1140;SDS011;559;48.628;8.924;2022-12-07T02:43:08;45.20;;;42.30;;
1140;SDS011;559;48.628;8.924;2022-12-07T02:45:40;49.80;;;46.60;;
1140;SDS011;559;48.628;8.924;2022-12-07T02:48:08;45.55;;;42.75;;
1140;SDS011;559;48.628;8.924;2022-12-07T02:50:36;47.40;;;44.30;;
1140;SDS011;559;48.628;8.924;2022-12-07T02:53:03;47.53;;;44.40;;
1140;SDS011;559;48.628;8.924;2022-12-07T02:55:30;47.70;;;44.70;;
1140;SDS011;559;48.628;8.924;2022-12-07T02:58:06;48.38;;;45.28;;
1140;SDS011;559;48.628;8.924;2022-12-07T03:00:42;49.15;;;46.00;;
1140;SDS011;559;48.628;8.924;2022-12-07T03:03:14;48.38;;;45.25;;
1140;SDS011;559;48.628;8.924;2022-12-07T03:05:45;47.20;;;44.00;;
1140;SDS011;559;48.628;8.924;2022-12-07T03:08:20;48.97;;;45.88;;
1140;SDS011;559;48.628;8.924;2022-12-07T03:10:50;49.10;;;45.90;;
1140;SDS011;559;48.628;8.924;2022-12-07T03:13:22;47.60;;;44.30;;
1140;SDS011;559;48.628;8.924;2022-12-07T03:15:54;49.58;;;46.15;;
1140;SDS011;559;48.628;8.924;2022-12-07T03:18:23;46.97;;;43.78;;
1140;SDS011;559;48.628;8.924;2022-12-07T03:20:52;46.50;;;43.42;;
1140;SDS011;559;48.628;8.924;2022-12-07T03:23:20;47.28;;;44.08;;
1140;SDS011;559;48.628;8.924;2022-12-07T03:25:49;48.45;;;45.17;;
1140;SDS011;559;48.628;8.924;2022-12-07T03:28:18;47.58;;;44.33;;
1140;SDS011;559;48.628;8.924;2022-12-07T03:30:47;47.70;;;44.50;;
1140;SDS011;559;48.628;8.924;2022-12-07T03:33:17;45.60;;;42.50;;
1140;SDS011;559;48.628;8.924;2022-12-07T03:35:47;46.85;;;43.67;;
1140;SDS011;559;48.628;8.924;2022-12-07T03:38:17;48.58;;;45.17;;
1140;SDS011;559;48.628;8.924;2022-12-07T03:40:47;51.90;;;48.30;;
1140;SDS011;559;48.628;8.924;2022-12-07T03:43:17;51.05;;;47.55;;
1140;SDS011;559;48.628;8.924;2022-12-07T03:45:44;52.10;;;48.30;;
1140;SDS011;559;48.628;8.924;2022-12-07T03:48:16;50.35;;;47.05;;
1140;SDS011;559;48.628;8.924;2022-12-07T03:50:49;50.38;;;47.08;;
1140;SDS011;559;48.628;8.924;2022-12-07T03:53:19;49.95;;;46.45;;
1140;SDS011;559;48.628;8.924;2022-12-07T03:55:49;49.75;;;46.45;;
1140;SDS011;559;48.628;8.924;2022-12-07T03:58:16;48.47;;;45.13;;
1140;SDS011;559;48.628;8.924;2022-12-07T04:00:44;49.28;;;45.78;;
1140;SDS011;559;48.628;8.924;2022-12-07T04:03:11;47.88;;;44.47;;
1140;SDS011;559;48.628;8.924;2022-12-07T04:05:39;48.22;;;45.00;;
1140;SDS011;559;48.628;8.924;2022-12-07T04:08:06;49.13;;;45.65;;
1140;SDS011;559;48.628;8.924;2022-12-07T04:10:32;49.95;;;46.45;;
1140;SDS011;559;48.628;8.924;2022-12-07T04:12:59;48.80;;;45.40;;
1140;SDS011;559;48.628;8.924;2022-12-07T04:15:25;49.22;;;45.83;;
1140;SDS011;559;48.628;8.924;2022-12-07T04:17:52;47.88;;;44.58;;
1140;SDS011;559;48.628;8.924;2022-12-07T04:20:18;49.72;;;46.20;;
1140;SDS011;559;48.628;8.924;2022-12-07T04:22:46;49.10;;;45.60;;
1140;SDS011;559;48.628;8.924;2022-12-07T04:25:13;51.60;;;47.83;;
1140;SDS011;559;48.628;8.924;2022-12-07T04:27:39;51.90;;;48.40;;
1140;SDS011;559;48.628;8.924;2022-12-07T04:30:06;53.03;;;49.42;;
1140;SDS011;559;48.628;8.924;2022-12-07T04:32:33;52.42;;;48.95;;
1140;SDS011;559;48.628;8.924;2022-12-07T04:35:00;51.80;;;48.28;;
1140;SDS011;559;48.628;8.924;2022-12-07T04:37:27;51.67;;;47.83;;
1140;SDS011;559;48.628;8.924;2022-12-07T04:39:54;52.75;;;49.25;;
1140;SDS011;559;48.628;8.924;2022-12-07T04:42:21;51.88;;;48.28;;
1140;SDS011;559;48.628;8.924;2022-12-07T04:44:47;50.53;;;47.03;;
1140;SDS011;559;48.628;8.924;2022-12-07T04:47:14;50.58;;;47.17;;
1140;SDS011;559;48.628;8.924;2022-12-07T04:49:40;49.22;;;45.72;;
1140;SDS011;559;48.628;8.924;2022-12-07T04:52:07;48.10;;;44.70;;
1140;SDS011;559;48.628;8.924;2022-12-07T04:54:34;49.92;;;46.42;;
1140;SDS011;559;48.628;8.924;2022-12-07T04:57:02;51.15;;;47.45;;
1140;SDS011;559;48.628;8.924;2022-12-07T04:59:29;84.45;;;76.30;;
1140;SDS011;559;48.628;8.924;2022-12-07T05:01:55;60.17;;;55.72;;
1140;SDS011;559;48.628;8.924;2022-12-07T05:04:22;50.85;;;47.45;;
1140;SDS011;559;48.628;8.924;2022-12-07T05:06:48;52.33;;;48.83;;
1140;SDS011;559;48.628;8.924;2022-12-07T05:09:15;51.60;;;48.20;;
1140;SDS011;559;48.628;8.924;2022-12-07T05:11:41;53.00;;;49.25;;
1140;SDS011;559;48.628;8.924;2022-12-07T05:14:11;51.50;;;47.90;;
1140;SDS011;559;48.628;8.924;2022-12-07T05:16:38;49.00;;;45.75;;
1140;SDS011;559;48.628;8.924;2022-12-07T05:19:05;48.80;;;45.55;;
1140;SDS011;559;48.628;8.924;2022-12-07T05:21:32;52.95;;;49.38;;
1140;SDS011;559;48.628;8.924;2022-12-07T05:23:59;52.30;;;48.90;;
1140;SDS011;559;48.628;8.924;2022-12-07T05:26:26;54.17;;;50.38;;
1140;SDS011;559;48.628;8.924;2022-12-07T05:28:52;54.75;;;51.15;;
1140;SDS011;559;48.628;8.924;2022-12-07T05:31:21;53.30;;;49.70;;
1140;SDS011;559;48.628;8.924;2022-12-07T05:33:47;56.58;;;52.67;;
1140;SDS011;559;48.628;8.924;2022-12-07T05:36:14;56.67;;;52.58;;
1140;SDS011;559;48.628;8.924;2022-12-07T05:38:41;58.10;;;54.20;;
1140;SDS011;559;48.628;8.924;2022-12-07T05:41:08;55.50;;;51.95;;
1140;SDS011;559;48.628;8.924;2022-12-07T05:43:55;52.08;;;48.53;;
1140;SDS011;559;48.628;8.924;2022-12-07T05:46:22;52.70;;;49.20;;
1140;SDS011;559;48.628;8.924;2022-12-07T05:48:49;54.80;;;51.22;;
1140;SDS011;559;48.628;8.924;2022-12-07T05:51:15;54.40;;;50.55;;
1140;SDS011;559;48.628;8.924;2022-12-07T05:53:42;57.95;;;53.75;;
1140;SDS011;559;48.628;8.924;2022-12-07T05:56:08;56.53;;;52.72;;
1140;SDS011;559;48.628;8.924;2022-12-07T05:58:35;56.60;;;52.70;;
1140;SDS011;559;48.628;8.924;2022-12-07T06:01:19;59.00;;;55.10;;
1140;SDS011;559;48.628;8.924;2022-12-07T06:03:47;60.70;;;56.65;;
1140;SDS011;559;48.628;8.924;2022-12-07T06:06:14;66.45;;;62.08;;
1140;SDS011;559;48.628;8.924;2022-12-07T06:08:40;60.80;;;56.88;;
1140;SDS011;559;48.628;8.924;2022-12-07T06:11:07;61.10;;;57.13;;
1140;SDS011;559;48.628;8.924;2022-12-07T06:13:51;61.35;;;57.35;;
1140;SDS011;559;48.628;8.924;2022-12-07T06:16:17;63.80;;;59.78;;
1140;SDS011;559;48.628;8.924;2022-12-07T06:18:44;64.13;;;60.13;;
1140;SDS011;559;48.628;8.924;2022-12-07T06:21:12;63.90;;;59.80;;
1140;SDS011;559;48.628;8.924;2022-12-07T06:23:39;66.07;;;61.75;;
1140;SDS011;559;48.628;8.924;2022-12-07T06:26:06;63.75;;;59.75;;
1140;SDS011;559;48.628;8.924;2022-12-07T06:28:32;69.70;;;65.15;;
1140;SDS011;559;48.628;8.924;2022-12-07T06:30:59;66.30;;;61.83;;
1140;SDS011;559;48.628;8.924;2022-12-07T06:33:25;68.00;;;63.30;;
1140;SDS011;559;48.628;8.924;2022-12-07T06:35:52;66.25;;;61.75;;
1140;SDS011;559;48.628;8.924;2022-12-07T06:38:20;65.10;;;60.47;;
1140;SDS011;559;48.628;8.924;2022-12-07T06:40:47;71.03;;;66.60;;
1140;SDS011;559;48.628;8.924;2022-12-07T06:43:14;72.95;;;68.20;;
1140;SDS011;559;48.628;8.924;2022-12-07T06:45:41;69.63;;;65.10;;
1140;SDS011;559;48.628;8.924;2022-12-07T06:48:08;77.15;;;72.20;;
1140;SDS011;559;48.628;8.924;2022-12-07T06:50:34;69.20;;;64.50;;
1140;SDS011;559;48.628;8.924;2022-12-07T06:53:01;71.72;;;66.90;;
1140;SDS011;559;48.628;8.924;2022-12-07T06:55:29;74.72;;;69.57;;
1140;SDS011;559;48.628;8.924;2022-12-07T06:57:55;70.50;;;65.70;;
1140;SDS011;559;48.628;8.924;2022-12-07T07:00:22;69.40;;;64.30;;
1140;SDS011;559;48.628;8.924;2022-12-07T07:02:49;75.43;;;70.20;;
1140;SDS011;559;48.628;8.924;2022-12-07T07:05:16;69.68;;;64.88;;
1140;SDS011;559;48.628;8.924;2022-12-07T07:07:42;65.43;;;60.78;;
1140;SDS011;559;48.628;8.924;2022-12-07T07:10:09;65.15;;;60.60;;
1140;SDS011;559;48.628;8.924;2022-12-07T07:12:37;65.35;;;60.65;;
1140;SDS011;559;48.628;8.924;2022-12-07T07:15:05;70.07;;;65.53;;
1140;SDS011;559;48.628;8.924;2022-12-07T07:17:32;65.82;;;61.33;;
1140;SDS011;559;48.628;8.924;2022-12-07T07:19:59;65.47;;;61.13;;
1140;SDS011;559;48.628;8.924;2022-12-07T07:22:25;66.35;;;61.72;;
1140;SDS011;559;48.628;8.924;2022-12-07T07:24:52;67.93;;;63.30;;
1140;SDS011;559;48.628;8.924;2022-12-07T07:27:18;67.63;;;63.10;;
1140;SDS011;559;48.628;8.924;2022-12-07T07:29:46;69.85;;;65.55;;
1140;SDS011;559;48.628;8.924;2022-12-07T07:32:13;65.43;;;60.88;;
1140;SDS011;559;48.628;8.924;2022-12-07T07:34:39;62.78;;;58.60;;
1140;SDS011;559;48.628;8.924;2022-12-07T07:37:06;63.85;;;59.75;;
1140;SDS011;559;48.628;8.924;2022-12-07T07:39:32;61.97;;;57.72;;
1140;SDS011;559;48.628;8.924;2022-12-07T07:41:59;60.33;;;56.35;;
1140;SDS011;559;48.628;8.924;2022-12-07T07:44:25;59.83;;;55.75;;
1140;SDS011;559;48.628;8.924;2022-12-07T07:46:53;58.10;;;54.15;;
1140;SDS011;559;48.628;8.924;2022-12-07T07:49:20;55.00;;;51.50;;
1140;SDS011;559;48.628;8.924;2022-12-07T07:51:46;58.72;;;54.92;;
1140;SDS011;559;48.628;8.924;2022-12-07T07:54:13;54.63;;;51.20;;
1140;SDS011;559;48.628;8.924;2022-12-07T07:56:39;51.50;;;48.05;;
1140;SDS011;559;48.628;8.924;2022-12-07T07:59:06;51.90;;;48.63;;
1140;SDS011;559;48.628;8.924;2022-12-07T08:01:33;48.28;;;45.22;;
1140;SDS011;559;48.628;8.924;2022-12-07T08:04:01;48.58;;;45.53;;
1140;SDS011;559;48.628;8.924;2022-12-07T08:06:27;48.47;;;45.55;;
1140;SDS011;559;48.628;8.924;2022-12-07T08:08:54;46.60;;;43.80;;
1140;SDS011;559;48.628;8.924;2022-12-07T08:11:22;44.88;;;42.20;;
1140;SDS011;559;48.628;8.924;2022-12-07T08:13:49;45.78;;;43.17;;
1140;SDS011;559;48.628;8.924;2022-12-07T08:16:16;46.58;;;43.72;;
1140;SDS011;559;48.628;8.924;2022-12-07T08:18:43;45.17;;;42.10;;
1140;SDS011;559;48.628;8.924;2022-12-07T08:21:12;43.72;;;41.33;;
1140;SDS011;559;48.628;8.924;2022-12-07T08:23:39;44.13;;;41.53;;
1140;SDS011;559;48.628;8.924;2022-12-07T08:26:06;43.05;;;40.65;;
1140;SDS011;559;48.628;8.924;2022-12-07T08:28:34;42.97;;;40.38;;
1140;SDS011;559;48.628;8.924;2022-12-07T08:31:01;44.70;;;42.38;;
1140;SDS011;559;48.628;8.924;2022-12-07T08:33:28;41.38;;;39.20;;
1140;SDS011;559;48.628;8.924;2022-12-07T08:35:54;43.78;;;41.22;;
1140;SDS011;559;48.628;8.924;2022-12-07T08:38:22;40.85;;;38.60;;
1140;SDS011;559;48.628;8.924;2022-12-07T08:40:53;41.80;;;39.50;;
1140;SDS011;559;48.628;8.924;2022-12-07T08:43:20;43.58;;;41.17;;
1140;SDS011;559;48.628;8.924;2022-12-07T08:45:46;40.83;;;38.53;;
1140;SDS011;559;48.628;8.924;2022-12-07T08:48:14;44.72;;;42.10;;
1140;SDS011;559;48.628;8.924;2022-12-07T08:50:43;45.15;;;42.45;;
1140;SDS011;559;48.628;8.924;2022-12-07T08:53:09;43.50;;;41.03;;
1140;SDS011;559;48.628;8.924;2022-12-07T08:55:37;42.33;;;40.22;;
1140;SDS011;559;48.628;8.924;2022-12-07T08:58:04;39.83;;;37.55;;
1140;SDS011;559;48.628;8.924;2022-12-07T09:00:30;40.70;;;38.45;;
1140;SDS011;559;48.628;8.924;2022-12-07T09:02:57;39.65;;;37.60;;
1140;SDS011;559;48.628;8.924;2022-12-07T09:05:23;40.75;;;38.60;;
1140;SDS011;559;48.628;8.924;2022-12-07T09:07:51;40.25;;;38.20;;
1140;SDS011;559;48.628;8.924;2022-12-07T09:10:21;40.38;;;37.72;;
1140;SDS011;559;48.628;8.924;2022-12-07T09:12:49;40.25;;;37.70;;
1140;SDS011;559;48.628;8.924;2022-12-07T09:15:16;39.63;;;37.63;;
1140;SDS011;559;48.628;8.924;2022-12-07T09:17:42;37.47;;;35.65;;
1140;SDS011;559;48.628;8.924;2022-12-07T09:20:09;39.55;;;37.63;;
1140;SDS011;559;48.628;8.924;2022-12-07T09:22:36;38.47;;;36.70;;
1140;SDS011;559;48.628;8.924;2022-12-07T09:25:04;37.15;;;35.30;;
1140;SDS011;559;48.628;8.924;2022-12-07T09:27:31;37.05;;;35.35;;
1140;SDS011;559;48.628;8.924;2022-12-07T09:29:59;36.75;;;35.05;;
1140;SDS011;559;48.628;8.924;2022-12-07T09:32:25;38.65;;;36.70;;
1140;SDS011;559;48.628;8.924;2022-12-07T09:34:52;37.08;;;35.47;;
1140;SDS011;559;48.628;8.924;2022-12-07T09:37:18;36.38;;;34.55;;
1140;SDS011;559;48.628;8.924;2022-12-07T09:39:45;35.22;;;33.72;;
1140;SDS011;559;48.628;8.924;2022-12-07T09:42:13;36.33;;;34.83;;
1140;SDS011;559;48.628;8.924;2022-12-07T09:44:52;38.17;;;36.17;;
1140;SDS011;559;48.628;8.924;2022-12-07T09:47:20;37.65;;;35.70;;
1140;SDS011;559;48.628;8.924;2022-12-07T09:49:46;35.03;;;33.42;;
1140;SDS011;559;48.628;8.924;2022-12-07T09:52:17;32.25;;;30.80;;
1140;SDS011;559;48.628;8.924;2022-12-07T09:54:46;32.35;;;30.65;;
1140;SDS011;559;48.628;8.924;2022-12-07T09:57:14;33.88;;;32.47;;
1140;SDS011;559;48.628;8.924;2022-12-07T09:59:40;33.20;;;31.80;;
1140;SDS011;559;48.628;8.924;2022-12-07T10:02:24;34.00;;;32.50;;
1140;SDS011;559;48.628;8.924;2022-12-07T10:04:54;38.00;;;36.20;;
1140;SDS011;559;48.628;8.924;2022-12-07T10:07:23;32.28;;;30.70;;
1140;SDS011;559;48.628;8.924;2022-12-07T10:09:50;34.03;;;32.38;;
1140;SDS011;559;48.628;8.924;2022-12-07T10:12:16;29.73;;;28.60;;
1140;SDS011;559;48.628;8.924;2022-12-07T10:14:53;30.60;;;29.30;;
1140;SDS011;559;48.628;8.924;2022-12-07T10:17:30;26.10;;;25.23;;
1140;SDS011;559;48.628;8.924;2022-12-07T10:22:56;25.85;;;24.75;;
1140;SDS011;559;48.628;8.924;2022-12-07T10:25:26;24.70;;;23.50;;
1140;SDS011;559;48.628;8.924;2022-12-07T10:27:57;24.67;;;23.67;;
1140;SDS011;559;48.628;8.924;2022-12-07T10:30:24;22.05;;;20.85;;
1140;SDS011;559;48.628;8.924;2022-12-07T10:32:52;21.23;;;20.13;;
1140;SDS011;559;48.628;8.924;2022-12-07T10:35:23;22.42;;;21.42;;
1140;SDS011;559;48.628;8.924;2022-12-07T10:37:51;21.95;;;20.85;;
1140;SDS011;559;48.628;8.924;2022-12-07T10:40:24;20.05;;;19.15;;
1140;SDS011;559;48.628;8.924;2022-12-07T10:42:59;22.83;;;21.85;;
1140;SDS011;559;48.628;8.924;2022-12-07T10:45:27;24.60;;;23.25;;
1140;SDS011;559;48.628;8.924;2022-12-07T10:47:56;19.48;;;18.67;;
1140;SDS011;559;48.628;8.924;2022-12-07T10:50:32;20.30;;;19.23;;
1140;SDS011;559;48.628;8.924;2022-12-07T10:53:14;20.77;;;19.77;;
1140;SDS011;559;48.628;8.924;2022-12-07T10:55:54;21.05;;;20.10;;
1140;SDS011;559;48.628;8.924;2022-12-07T10:58:29;20.30;;;19.20;;
1140;SDS011;559;48.628;8.924;2022-12-07T11:01:02;17.65;;;16.50;;
1140;SDS011;559;48.628;8.924;2022-12-07T11:03:38;20.50;;;19.52;;
1140;SDS011;559;48.628;8.924;2022-12-07T11:06:13;20.63;;;19.73;;
1140;SDS011;559;48.628;8.924;2022-12-07T11:08:47;25.25;;;24.05;;
1140;SDS011;559;48.628;8.924;2022-12-07T11:11:23;24.95;;;23.85;;
1140;SDS011;559;48.628;8.924;2022-12-07T11:13:56;21.23;;;20.10;;
1140;SDS011;559;48.628;8.924;2022-12-07T11:16:34;22.42;;;21.38;;
1140;SDS011;559;48.628;8.924;2022-12-07T11:19:23;25.65;;;24.52;;
1140;SDS011;559;48.628;8.924;2022-12-07T11:22:11;25.77;;;24.70;;
1140;SDS011;559;48.628;8.924;2022-12-07T11:24:42;28.38;;;27.10;;
1140;SDS011;559;48.628;8.924;2022-12-07T11:27:17;28.90;;;27.15;;
1140;SDS011;559;48.628;8.924;2022-12-07T11:32:45;26.42;;;25.40;;
1140;SDS011;559;48.628;8.924;2022-12-07T11:35:22;28.20;;;27.10;;
1140;SDS011;559;48.628;8.924;2022-12-07T11:37:55;26.77;;;25.67;;
1140;SDS011;559;48.628;8.924;2022-12-07T11:40:24;25.85;;;24.77;;
1140;SDS011;559;48.628;8.924;2022-12-07T11:42:55;28.38;;;27.08;;
1140;SDS011;559;48.628;8.924;2022-12-07T11:45:25;26.88;;;25.73;;
1140;SDS011;559;48.628;8.924;2022-12-07T11:47:53;23.60;;;22.70;;
1140;SDS011;559;48.628;8.924;2022-12-07T11:50:26;23.55;;;22.65;;
1140;SDS011;559;48.628;8.924;2022-12-07T11:52:55;23.63;;;22.65;;
1140;SDS011;559;48.628;8.924;2022-12-07T11:55:26;24.10;;;23.13;;
1140;SDS011;559;48.628;8.924;2022-12-07T11:57:57;27.77;;;26.38;;
1140;SDS011;559;48.628;8.924;2022-12-07T12:00:25;24.70;;;23.70;;
1140;SDS011;559;48.628;8.924;2022-12-07T12:02:52;26.33;;;25.40;;
1140;SDS011;559;48.628;8.924;2022-12-07T12:05:24;24.50;;;23.60;;
1140;SDS011;559;48.628;8.924;2022-12-07T12:07:52;28.73;;;27.30;;
1140;SDS011;559;48.628;8.924;2022-12-07T12:10:27;23.25;;;21.77;;
1140;SDS011;559;48.628;8.924;2022-12-07T12:13:11;21.50;;;20.58;;
1140;SDS011;559;48.628;8.924;2022-12-07T12:15:48;22.52;;;21.63;;
1140;SDS011;559;48.628;8.924;2022-12-07T12:18:26;22.60;;;21.80;;
1140;SDS011;559;48.628;8.924;2022-12-07T12:21:08;23.27;;;22.33;;
1140;SDS011;559;48.628;8.924;2022-12-07T12:23:36;24.42;;;23.33;;
1140;SDS011;559;48.628;8.924;2022-12-07T12:26:06;28.63;;;27.58;;
1140;SDS011;559;48.628;8.924;2022-12-07T12:28:35;31.88;;;30.42;;
1140;SDS011;559;48.628;8.924;2022-12-07T12:31:06;29.83;;;28.63;;
1140;SDS011;559;48.628;8.924;2022-12-07T12:33:35;29.83;;;28.50;;
1140;SDS011;559;48.628;8.924;2022-12-07T12:36:19;34.05;;;32.65;;
1140;SDS011;559;48.628;8.924;2022-12-07T12:38:51;32.03;;;30.52;;
1140;SDS011;559;48.628;8.924;2022-12-07T12:44:40;31.98;;;30.65;;
1140;SDS011;559;48.628;8.924;2022-12-07T12:47:41;31.58;;;30.33;;
1140;SDS011;559;48.628;8.924;2022-12-07T12:50:21;32.25;;;30.95;;
1140;SDS011;559;48.628;8.924;2022-12-07T12:52:54;31.55;;;30.55;;
1140;SDS011;559;48.628;8.924;2022-12-07T12:55:42;30.10;;;28.90;;
1140;SDS011;559;48.628;8.924;2022-12-07T12:58:30;29.80;;;28.70;;
1140;SDS011;559;48.628;8.924;2022-12-07T13:04:17;30.60;;;29.42;;
1140;SDS011;559;48.628;8.924;2022-12-07T13:07:10;32.47;;;31.38;;
1140;SDS011;559;48.628;8.924;2022-12-07T13:09:39;32.22;;;31.02;;
1140;SDS011;559;48.628;8.924;2022-12-07T13:12:11;34.60;;;33.40;;
1140;SDS011;559;48.628;8.924;2022-12-07T13:20:40;32.95;;;31.85;;
1140;SDS011;559;48.628;8.924;2022-12-07T13:23:10;32.75;;;31.55;;
1140;SDS011;559;48.628;8.924;2022-12-07T13:25:43;32.80;;;31.50;;
1140;SDS011;559;48.628;8.924;2022-12-07T13:28:15;33.72;;;32.45;;
1140;SDS011;559;48.628;8.924;2022-12-07T13:30:45;32.90;;;31.70;;
1140;SDS011;559;48.628;8.924;2022-12-07T13:33:25;34.55;;;33.35;;
1140;SDS011;559;48.628;8.924;2022-12-07T13:35:54;34.70;;;33.40;;
1140;SDS011;559;48.628;8.924;2022-12-07T13:38:25;34.25;;;32.95;;
1140;SDS011;559;48.628;8.924;2022-12-07T13:41:05;33.03;;;31.83;;
1140;SDS011;559;48.628;8.924;2022-12-07T13:43:45;34.72;;;33.30;;
1140;SDS011;559;48.628;8.924;2022-12-07T13:46:14;35.53;;;34.17;;
1140;SDS011;559;48.628;8.924;2022-12-07T13:48:44;34.90;;;33.28;;
1140;SDS011;559;48.628;8.924;2022-12-07T13:51:16;35.45;;;34.15;;
1140;SDS011;559;48.628;8.924;2022-12-07T13:53:48;34.00;;;32.90;;
1140;SDS011;559;48.628;8.924;2022-12-07T13:56:17;33.75;;;32.55;;
1140;SDS011;559;48.628;8.924;2022-12-07T13:58:43;33.67;;;32.58;;
1140;SDS011;559;48.628;8.924;2022-12-07T14:01:10;33.97;;;32.67;;
1140;SDS011;559;48.628;8.924;2022-12-07T14:03:38;32.60;;;31.60;;
1140;SDS011;559;48.628;8.924;2022-12-07T14:06:06;34.22;;;32.83;;
1140;SDS011;559;48.628;8.924;2022-12-07T14:08:39;34.20;;;32.88;;
1140;SDS011;559;48.628;8.924;2022-12-07T14:11:06;35.25;;;33.95;;
1140;SDS011;559;48.628;8.924;2022-12-07T14:13:36;35.55;;;34.15;;
1140;SDS011;559;48.628;8.924;2022-12-07T14:16:05;35.88;;;34.42;;
1140;SDS011;559;48.628;8.924;2022-12-07T14:18:46;34.85;;;33.60;;
1140;SDS011;559;48.628;8.924;2022-12-07T14:21:14;33.90;;;32.58;;
1140;SDS011;559;48.628;8.924;2022-12-07T14:23:41;33.22;;;32.10;;
1140;SDS011;559;48.628;8.924;2022-12-07T14:26:10;32.92;;;31.75;;
1140;SDS011;559;48.628;8.924;2022-12-07T14:28:39;34.33;;;33.13;;
1140;SDS011;559;48.628;8.924;2022-12-07T14:31:08;33.28;;;32.08;;
1140;SDS011;559;48.628;8.924;2022-12-07T14:33:38;33.45;;;32.05;;
1140;SDS011;559;48.628;8.924;2022-12-07T14:36:05;34.85;;;33.15;;
1140;SDS011;559;48.628;8.924;2022-12-07T14:38:32;33.50;;;32.05;;
1140;SDS011;559;48.628;8.924;2022-12-07T14:40:58;32.67;;;31.48;;
1140;SDS011;559;48.628;8.924;2022-12-07T14:43:46;34.45;;;33.15;;
1140;SDS011;559;48.628;8.924;2022-12-07T14:46:13;35.50;;;33.25;;
1140;SDS011;559;48.628;8.924;2022-12-07T14:48:39;35.00;;;33.70;;
1140;SDS011;559;48.628;8.924;2022-12-07T14:51:07;35.05;;;33.75;;
1140;SDS011;559;48.628;8.924;2022-12-07T14:53:35;34.63;;;33.33;;
1140;SDS011;559;48.628;8.924;2022-12-07T14:56:03;36.47;;;34.92;;
1140;SDS011;559;48.628;8.924;2022-12-07T14:58:31;37.00;;;35.28;;
1140;SDS011;559;48.628;8.924;2022-12-07T15:01:00;33.60;;;32.40;;
1140;SDS011;559;48.628;8.924;2022-12-07T15:03:26;34.10;;;32.83;;
1140;SDS011;559;48.628;8.924;2022-12-07T15:05:53;34.15;;;32.90;;
1140;SDS011;559;48.628;8.924;2022-12-07T15:08:19;33.60;;;32.50;;
1140;SDS011;559;48.628;8.924;2022-12-07T15:10:46;34.25;;;33.00;;
1140;SDS011;559;48.628;8.924;2022-12-07T15:13:12;35.67;;;34.00;;
1140;SDS011;559;48.628;8.924;2022-12-07T15:15:56;34.28;;;32.97;;
1140;SDS011;559;48.628;8.924;2022-12-07T15:18:24;35.58;;;34.15;;
1140;SDS011;559;48.628;8.924;2022-12-07T15:20:51;41.20;;;39.15;;
1140;SDS011;559;48.628;8.924;2022-12-07T15:23:17;37.35;;;35.75;;
1140;SDS011;559;48.628;8.924;2022-12-07T15:25:45;35.83;;;34.38;;
1140;SDS011;559;48.628;8.924;2022-12-07T15:28:13;37.00;;;35.58;;
1140;SDS011;559;48.628;8.924;2022-12-07T15:30:41;36.88;;;35.38;;
1140;SDS011;559;48.628;8.924;2022-12-07T15:33:08;37.55;;;36.05;;
1140;SDS011;559;48.628;8.924;2022-12-07T15:35:39;36.58;;;35.08;;